createdAt,value
2018-11-01T00:01:06.021Z,3.77
2018-11-01T00:03:36.461Z,3.37
2018-11-01T00:06:05.138Z,3.53
2018-11-01T00:08:34.070Z,3.73
2018-11-01T00:11:05.053Z,3.93
2018-11-01T00:13:33.966Z,6.43
2018-11-01T00:16:02.429Z,4.43
2018-11-01T00:18:31.028Z,4.27
2018-11-01T00:20:59.566Z,3.90
2018-11-01T00:23:28.272Z,3.63
2018-11-01T00:25:56.558Z,4.00
2018-11-01T00:28:24.874Z,4.20
2018-11-01T00:30:55.017Z,3.53
2018-11-01T00:33:23.736Z,3.53
2018-11-01T00:35:52.847Z,3.60
2018-11-01T00:38:22.342Z,3.80
2018-11-01T00:40:50.830Z,4.10
2018-11-01T00:43:19.133Z,4.27
2018-11-01T00:45:48.971Z,4.63
2018-11-01T00:48:18.953Z,4.43
2018-11-01T00:50:48.987Z,4.33
2018-11-01T00:53:17.650Z,4.50
2018-11-01T00:55:46.227Z,5.83
2018-11-01T00:58:15.054Z,7.97
2018-11-01T01:00:43.601Z,8.03
2018-11-01T01:03:12.557Z,8.60
2018-11-01T01:05:41.066Z,6.47
2018-11-01T01:08:09.419Z,5.80
2018-11-01T01:10:37.978Z,4.30
2018-11-01T01:13:06.516Z,3.70
2018-11-01T01:15:35.394Z,3.70
2018-11-01T01:18:04.017Z,3.10
2018-11-01T01:20:32.972Z,3.23
2018-11-01T01:23:01.976Z,3.27
2018-11-01T01:25:31.313Z,3.00
2018-11-01T01:27:59.770Z,3.00
2018-11-01T01:30:29.086Z,2.93
2018-11-01T01:32:57.786Z,2.80
2018-11-01T01:35:27.157Z,2.77
2018-11-01T01:37:55.442Z,3.00
2018-11-01T01:40:23.762Z,2.40
2018-11-01T01:42:53.706Z,3.00
2018-11-01T01:45:22.970Z,3.20
2018-11-01T01:47:52.080Z,3.10
2018-11-01T01:50:21.497Z,2.93
2018-11-01T01:52:50.075Z,3.13
2018-11-01T01:55:18.423Z,3.27
2018-11-01T01:57:47.178Z,3.40
2018-11-01T02:00:16.915Z,3.10
2018-11-01T02:02:46.462Z,2.73
2018-11-01T02:05:14.989Z,3.00
2018-11-01T02:07:44.377Z,3.30
2018-11-01T02:10:14.089Z,2.90
2018-11-01T02:12:42.641Z,3.43
2018-11-01T02:15:14.031Z,2.97
2018-11-01T02:17:43.784Z,2.70
2018-11-01T02:20:13.558Z,3.07
2018-11-01T02:22:43.226Z,2.97
2018-11-01T02:25:11.509Z,2.57
2018-11-01T02:27:45.799Z,3.03
2018-11-01T02:30:15.429Z,2.50
2018-11-01T02:32:44.370Z,3.00
2018-11-01T02:35:13.623Z,2.60
2018-11-01T02:37:42.381Z,2.90
2018-11-01T02:40:11.567Z,2.60
2018-11-01T02:42:41.111Z,2.40
2018-11-01T02:45:10.561Z,3.10
2018-11-01T02:47:39.275Z,2.60
2018-11-01T02:50:09.522Z,2.77
2018-11-01T02:52:39.264Z,2.93
2018-11-01T02:55:08.728Z,3.00
2018-11-01T02:57:37.052Z,3.00
2018-11-01T03:00:07.516Z,2.97
2018-11-01T03:02:36.985Z,3.13
2018-11-01T03:05:06.149Z,4.10
2018-11-01T03:07:34.475Z,3.40
2018-11-01T03:10:04.353Z,3.07
2018-11-01T03:12:32.655Z,3.50
2018-11-01T03:15:00.930Z,3.73
2018-11-01T03:17:29.345Z,4.17
2018-11-01T03:19:58.013Z,3.60
2018-11-01T03:22:26.540Z,4.10
2018-11-01T03:24:55.439Z,5.87
2018-11-01T03:27:24.002Z,20.80
2018-11-01T03:29:52.411Z,20.27
2018-11-01T03:32:20.797Z,29.40
2018-11-01T03:34:50.335Z,23.23
2018-11-01T03:37:19.323Z,12.17
2018-11-01T03:39:47.736Z,8.10
2018-11-01T03:42:16.158Z,9.37
2018-11-01T03:44:45.569Z,8.50
2018-11-01T03:47:13.856Z,7.10
2018-11-01T03:49:42.830Z,5.83
2018-11-01T03:52:11.577Z,4.83
2018-11-01T03:54:40.503Z,3.77
2018-11-01T03:57:09.265Z,3.87
2018-11-01T03:59:38.039Z,3.53
2018-11-01T04:02:06.900Z,4.33
2018-11-01T04:04:36.282Z,3.80
2018-11-01T04:07:05.754Z,3.27
2018-11-01T04:09:34.028Z,3.00
2018-11-01T04:12:03.390Z,3.27
2018-11-01T04:14:33.076Z,3.60
2018-11-01T04:17:02.122Z,2.80
2018-11-01T04:19:32.214Z,3.50
2018-11-01T04:22:04.568Z,3.33
2018-11-01T04:24:33.733Z,3.30
2018-11-01T04:27:02.948Z,3.53
2018-11-01T04:29:31.948Z,3.53
2018-11-01T04:32:00.426Z,4.10
2018-11-01T04:34:29.036Z,4.60
2018-11-01T04:36:57.344Z,3.80
2018-11-01T04:39:26.093Z,4.00
2018-11-01T04:41:54.675Z,3.40
2018-11-01T04:44:23.506Z,4.27
2018-11-01T04:46:51.725Z,3.57
2018-11-01T04:49:20.335Z,3.40
2018-11-01T04:51:49.089Z,4.07
2018-11-01T04:54:17.911Z,4.20
2018-11-01T04:56:46.211Z,4.03
2018-11-01T04:59:16.822Z,3.90
2018-11-01T05:01:45.976Z,4.20
2018-11-01T05:04:14.542Z,4.60
2018-11-01T05:06:43.624Z,3.60
2018-11-01T05:09:13.485Z,3.60
2018-11-01T05:11:41.987Z,4.33
2018-11-01T05:14:11.309Z,3.97
2018-11-01T05:16:40.447Z,5.60
2018-11-01T05:19:09.035Z,4.97
2018-11-01T05:21:37.882Z,4.23
2018-11-01T05:24:06.172Z,4.80
2018-11-01T05:26:35.082Z,4.90
2018-11-01T05:29:03.467Z,4.20
2018-11-01T05:31:32.115Z,4.30
2018-11-01T05:34:00.373Z,4.70
2018-11-01T05:36:28.602Z,5.10
2018-11-01T05:38:57.230Z,5.00
2018-11-01T05:41:25.738Z,4.40
2018-11-01T05:43:54.103Z,3.87
2018-11-01T05:46:22.274Z,3.17
2018-11-01T05:48:51.828Z,5.30
2018-11-01T05:51:21.338Z,5.30
2018-11-01T05:53:49.736Z,6.13
2018-11-01T05:56:18.350Z,5.60
2018-11-01T05:58:46.675Z,4.10
2018-11-01T06:01:19.079Z,5.57
2018-11-01T06:03:47.374Z,5.57
2018-11-01T06:06:15.591Z,5.17
2018-11-01T06:08:46.016Z,3.63
2018-11-01T06:11:14.560Z,3.37
2018-11-01T06:13:42.972Z,3.67
2018-11-01T06:16:11.209Z,4.00
2018-11-01T06:18:39.437Z,3.87
2018-11-01T06:21:07.770Z,3.90
2018-11-01T06:23:35.987Z,4.10
2018-11-01T06:26:04.735Z,3.50
2018-11-01T06:28:33.000Z,3.80
2018-11-01T06:31:01.431Z,3.93
2018-11-01T06:33:29.706Z,4.43
2018-11-01T06:36:00.860Z,3.57
2018-11-01T06:38:29.022Z,4.00
2018-11-01T06:40:57.246Z,6.00
2018-11-01T06:43:25.595Z,10.77
2018-11-01T06:45:54.307Z,7.40
2018-11-01T06:48:23.788Z,8.40
2018-11-01T06:50:52.529Z,9.40
2018-11-01T06:53:21.485Z,10.87
2018-11-01T06:55:50.102Z,7.53
2018-11-01T06:58:18.594Z,10.80
2018-11-01T07:00:46.812Z,16.23
2018-11-01T07:03:14.999Z,15.40
2018-11-01T07:05:43.917Z,31.33
2018-11-01T07:08:11.969Z,11.60
2018-11-01T07:10:40.242Z,14.37
2018-11-01T07:13:08.549Z,17.47
2018-11-01T07:15:36.997Z,30.53
2018-11-01T07:18:05.377Z,34.10
2018-11-01T07:20:33.631Z,103.83
2018-11-01T07:23:01.958Z,21.80
2018-11-01T07:25:30.972Z,21.63
2018-11-01T07:27:59.729Z,12.03
2018-11-01T07:30:28.635Z,19.47
2018-11-01T07:32:57.472Z,11.17
2018-11-01T07:35:26.380Z,12.13
2018-11-01T07:37:55.027Z,8.07
2018-11-01T07:40:24.127Z,13.50
2018-11-01T07:42:53.594Z,9.33
2018-11-01T07:45:22.328Z,8.43
2018-11-01T07:47:51.961Z,9.57
2018-11-01T07:50:20.534Z,8.33
2018-11-01T07:52:49.469Z,8.27
2018-11-01T07:55:18.929Z,11.47
2018-11-01T07:57:47.852Z,9.27
2018-11-01T08:00:17.600Z,6.87
2018-11-01T08:02:47.058Z,6.50
2018-11-01T08:05:16.202Z,6.90
2018-11-01T08:07:44.925Z,8.50
2018-11-01T08:10:15.181Z,6.73
2018-11-01T08:12:44.541Z,3.43
2018-11-01T08:15:17.422Z,7.23
2018-11-01T08:17:45.601Z,8.67
2018-11-01T08:20:14.928Z,3.33
2018-11-01T08:22:43.193Z,8.20
2018-11-01T08:25:12.349Z,3.80
2018-11-01T08:27:41.411Z,3.37
2018-11-01T08:30:11.963Z,23.40
2018-11-01T08:32:40.400Z,13.70
2018-11-01T08:35:09.392Z,19.90
2018-11-01T08:37:38.095Z,12.77
2018-11-01T08:40:07.261Z,20.63
2018-11-01T08:42:35.563Z,15.60
2018-11-01T08:45:03.840Z,31.93
2018-11-01T08:47:32.095Z,42.63
2018-11-01T08:50:00.534Z,18.33
2018-11-01T08:52:28.852Z,20.77
2018-11-01T08:54:57.107Z,8.50
2018-11-01T08:57:25.355Z,49.27
2018-11-01T08:59:53.548Z,47.07
2018-11-01T09:02:21.824Z,8.17
2018-11-01T09:04:50.531Z,11.63
2018-11-01T09:07:18.996Z,4.90
2018-11-01T09:09:47.171Z,4.93
2018-11-01T09:12:15.419Z,5.00
2018-11-01T09:14:44.147Z,49.63
2018-11-01T09:17:12.347Z,35.23
2018-11-01T09:19:40.623Z,9.53
2018-11-01T09:22:09.389Z,9.47
2018-11-01T09:24:37.605Z,6.40
2018-11-01T09:27:06.846Z,5.30
2018-11-01T09:29:35.320Z,5.43
2018-11-01T09:32:03.697Z,4.77
2018-11-01T09:34:31.872Z,4.20
2018-11-01T09:37:00.427Z,7.60
2018-11-01T09:39:28.952Z,6.00
2018-11-01T09:41:57.260Z,4.00
2018-11-01T09:44:25.515Z,4.00
2018-11-01T09:46:54.309Z,5.83
2018-11-01T09:49:22.195Z,4.67
2018-11-01T09:51:50.723Z,15.60
2018-11-01T09:54:18.881Z,3.13
2018-11-01T09:56:47.315Z,2.80
2018-11-01T09:59:16.696Z,3.53
2018-11-01T10:01:46.014Z,3.10
2018-11-01T10:04:14.359Z,2.40
2018-11-01T10:06:42.787Z,2.97
2018-11-01T10:09:11.363Z,2.53
2018-11-01T10:11:40.304Z,2.87
2018-11-01T10:14:09.127Z,2.80
2018-11-01T10:16:38.215Z,2.83
2018-11-01T10:19:07.521Z,2.70
2018-11-01T10:21:35.826Z,2.30
2018-11-01T10:24:04.435Z,2.20
2018-11-01T10:26:32.823Z,2.63
2018-11-01T10:29:01.566Z,2.43
2018-11-01T10:31:29.898Z,2.10
2018-11-01T10:33:58.450Z,2.20
2018-11-01T10:36:26.688Z,2.37
2018-11-01T10:38:54.919Z,3.20
2018-11-01T10:41:23.263Z,2.73
2018-11-01T10:43:51.701Z,4.43
2018-11-01T10:46:20.159Z,2.60
2018-11-01T10:48:49.126Z,3.43
2018-11-01T10:51:17.403Z,2.53
2018-11-01T10:53:45.664Z,4.50
2018-11-01T10:56:13.959Z,3.93
2018-11-01T10:58:42.137Z,3.73
2018-11-01T11:01:15.802Z,2.40
2018-11-01T11:03:44.225Z,5.77
2018-11-01T11:06:12.553Z,3.50
2018-11-01T11:08:41.778Z,6.37
2018-11-01T11:11:09.992Z,2.40
2018-11-01T11:13:38.647Z,3.60
2018-11-01T11:16:06.908Z,3.20
2018-11-01T11:18:35.320Z,6.70
2018-11-01T11:21:03.816Z,2.60
2018-11-01T11:23:32.106Z,2.37
2018-11-01T11:26:00.928Z,2.40
2018-11-01T11:28:30.137Z,3.03
2018-11-01T11:30:59.415Z,2.73
2018-11-01T11:33:27.735Z,2.57
2018-11-01T11:35:56.069Z,3.77
2018-11-01T11:38:24.272Z,5.13
2018-11-01T11:40:52.458Z,2.80
2018-11-01T11:43:20.842Z,2.30
2018-11-01T11:45:49.257Z,2.33
2018-11-01T11:48:17.480Z,2.40
2018-11-01T11:50:45.699Z,3.20
2018-11-01T11:53:14.180Z,2.33
2018-11-01T11:55:42.499Z,2.53
2018-11-01T11:58:10.704Z,2.57
2018-11-01T12:00:38.882Z,2.10
2018-11-01T12:03:07.102Z,3.87
2018-11-01T12:05:35.773Z,2.73
2018-11-01T12:08:03.917Z,2.67
2018-11-01T12:10:32.099Z,2.93
2018-11-01T12:13:00.567Z,7.00
2018-11-01T12:15:28.903Z,3.77
2018-11-01T12:17:57.175Z,2.90
2018-11-01T12:20:25.527Z,2.07
2018-11-01T12:22:53.879Z,5.67
2018-11-01T12:25:22.300Z,2.63
2018-11-01T12:27:50.779Z,2.40
2018-11-01T12:30:19.060Z,2.00
2018-11-01T12:32:47.274Z,1.90
2018-11-01T12:35:15.553Z,2.23
2018-11-01T12:37:44.055Z,2.43
2018-11-01T12:40:13.148Z,2.80
2018-11-01T12:42:41.939Z,2.43
2018-11-01T12:45:12.308Z,2.20
2018-11-01T12:47:40.762Z,4.37
2018-11-01T12:50:11.735Z,7.40
2018-11-01T12:52:40.652Z,6.23
2018-11-01T12:55:08.982Z,19.23
2018-11-01T12:57:37.535Z,11.03
2018-11-01T13:00:06.454Z,5.17
2018-11-01T13:02:34.935Z,4.97
2018-11-01T13:05:03.448Z,3.57
2018-11-01T13:07:31.980Z,3.27
2018-11-01T13:10:00.218Z,1.93
2018-11-01T13:12:28.847Z,1.97
2018-11-01T13:14:57.044Z,1.63
2018-11-01T13:17:25.446Z,1.60
2018-11-01T13:19:53.703Z,2.03
2018-11-01T13:22:22.020Z,1.83
2018-11-01T13:24:50.443Z,1.50
2018-11-01T13:27:19.012Z,1.67
2018-11-01T13:29:47.850Z,3.40
2018-11-01T13:32:16.267Z,1.80
2018-11-01T13:34:44.582Z,6.47
2018-11-01T13:37:12.820Z,3.03
2018-11-01T13:39:41.438Z,3.13
2018-11-01T13:42:09.620Z,3.33
2018-11-01T13:44:38.138Z,6.87
2018-11-01T13:47:06.644Z,8.67
2018-11-01T13:49:34.816Z,1.67
2018-11-01T13:52:03.058Z,3.97
2018-11-01T13:54:31.679Z,3.70
2018-11-01T13:56:59.911Z,2.00
2018-11-01T13:59:28.082Z,1.77
2018-11-01T14:01:56.756Z,1.80
2018-11-01T14:04:25.198Z,2.07
2018-11-01T14:06:53.935Z,28.73
2018-11-01T14:09:22.421Z,11.33
2018-11-01T14:11:50.859Z,50.47
2018-11-01T14:14:19.549Z,33.60
2018-11-01T14:16:47.351Z,2.90
2018-11-01T14:19:15.631Z,2.00
2018-11-01T14:21:44.041Z,1.50
2018-11-01T14:24:12.731Z,1.53
2018-11-01T14:26:41.097Z,1.73
2018-11-01T14:29:09.424Z,1.63
2018-11-01T14:31:37.767Z,1.50
2018-11-01T14:34:07.292Z,2.20
2018-11-01T14:36:35.469Z,2.10
2018-11-01T14:39:04.691Z,1.70
2018-11-01T14:41:33.132Z,1.70
2018-11-01T14:44:01.470Z,1.57
2018-11-01T14:46:29.677Z,1.60
2018-11-01T14:48:58.791Z,1.60
2018-11-01T14:51:27.092Z,1.23
2018-11-01T14:53:55.963Z,1.70
2018-11-01T14:56:24.252Z,1.70
2018-11-01T14:58:52.970Z,1.60
2018-11-01T15:01:20.023Z,1.40
2018-11-01T15:03:48.419Z,1.17
2018-11-01T15:06:16.712Z,1.90
2018-11-01T15:08:44.912Z,1.80
2018-11-01T15:11:13.094Z,1.53
2018-11-01T15:13:41.300Z,1.77
2018-11-01T15:16:09.543Z,1.70
2018-11-01T15:18:37.844Z,1.90
2018-11-01T15:21:06.384Z,2.20
2018-11-01T15:23:34.867Z,1.80
2018-11-01T15:26:03.130Z,1.87
2018-11-01T15:28:31.340Z,1.90
2018-11-01T15:30:59.638Z,1.63
2018-11-01T15:33:27.894Z,1.90
2018-11-01T15:35:56.011Z,2.03
2018-11-01T15:38:24.187Z,2.20
2018-11-01T15:40:58.023Z,2.10
2018-11-01T15:43:26.268Z,2.20
2018-11-01T15:45:54.541Z,3.37
2018-11-01T15:48:22.881Z,5.07
2018-11-01T15:50:51.223Z,7.57
2018-11-01T15:53:19.877Z,20.33
2018-11-01T15:55:48.350Z,6.27
2018-11-01T15:58:16.872Z,4.77
2018-11-01T16:00:45.876Z,3.60
2018-11-01T16:03:14.874Z,3.27
2018-11-01T16:05:43.149Z,3.10
2018-11-01T16:08:11.440Z,3.73
2018-11-01T16:10:39.790Z,3.47
2018-11-01T16:13:08.844Z,2.90
2018-11-01T16:15:37.063Z,3.73
2018-11-01T16:18:06.172Z,2.83
2018-11-01T16:20:34.478Z,2.57
2018-11-01T16:23:03.487Z,2.20
2018-11-01T16:25:31.867Z,3.57
2018-11-01T16:28:00.470Z,3.60
2018-11-01T16:30:29.386Z,2.40
2018-11-01T16:32:57.701Z,4.70
2018-11-01T16:35:26.375Z,4.93
2018-11-01T16:37:55.225Z,4.40
2018-11-01T16:40:24.031Z,6.50
2018-11-01T16:42:52.562Z,5.27
2018-11-01T16:45:21.994Z,5.13
2018-11-01T16:47:50.888Z,4.30
2018-11-01T16:50:19.297Z,6.40
2018-11-01T16:52:47.788Z,6.20
2018-11-01T16:55:16.221Z,9.77
2018-11-01T16:57:45.056Z,8.33
2018-11-01T17:00:14.163Z,7.27
2018-11-01T17:02:43.618Z,6.83
2018-11-01T17:05:12.939Z,9.07
2018-11-01T17:07:41.738Z,7.97
2018-11-01T17:10:11.589Z,4.83
2018-11-01T17:12:40.346Z,4.60
2018-11-01T17:15:10.806Z,3.30
2018-11-01T17:17:39.483Z,3.87
2018-11-01T17:20:08.031Z,3.27
2018-11-01T17:22:37.075Z,3.87
2018-11-01T17:25:06.189Z,3.33
2018-11-01T17:27:34.612Z,3.23
2018-11-01T17:30:03.590Z,6.67
2018-11-01T17:32:32.385Z,6.70
2018-11-01T17:35:01.281Z,3.80
2018-11-01T17:37:29.831Z,4.20
2018-11-01T17:39:58.087Z,4.43
2018-11-01T17:42:26.436Z,7.77
2018-11-01T17:44:55.357Z,2.60
2018-11-01T17:47:23.894Z,2.33
2018-11-01T17:49:52.494Z,2.60
2018-11-01T17:52:21.292Z,3.67
2018-11-01T17:54:50.197Z,5.43
2018-11-01T17:57:19.901Z,5.93
2018-11-01T17:59:48.584Z,8.23
2018-11-01T18:02:17.501Z,5.30
2018-11-01T18:04:45.998Z,4.90
2018-11-01T18:07:14.373Z,4.33
2018-11-01T18:09:42.698Z,4.13
2018-11-01T18:12:11.173Z,6.33
2018-11-01T18:14:39.967Z,7.20
2018-11-01T18:17:08.406Z,5.30
2018-11-01T18:19:36.688Z,4.37
2018-11-01T18:22:06.119Z,3.53
2018-11-01T18:24:34.698Z,3.20
2018-11-01T18:27:03.745Z,3.80
2018-11-01T18:29:33.274Z,2.90
2018-11-01T18:32:01.981Z,2.07
2018-11-01T18:34:30.544Z,2.10
2018-11-01T18:36:59.434Z,1.47
2018-11-01T18:39:27.990Z,1.70
2018-11-01T18:41:56.803Z,1.60
2018-11-01T18:44:25.487Z,1.43
2018-11-01T18:46:53.999Z,3.17
2018-11-01T18:49:22.276Z,3.77
2018-11-01T18:51:51.217Z,4.53
2018-11-01T18:54:21.774Z,3.20
2018-11-01T18:56:50.403Z,2.80
2018-11-01T18:59:19.442Z,2.13
2018-11-01T19:01:48.084Z,1.20
2018-11-01T19:04:17.072Z,1.13
2018-11-01T19:06:46.022Z,1.13
2018-11-01T19:09:14.701Z,1.00
2018-11-01T19:11:44.072Z,0.80
2018-11-01T19:14:12.612Z,0.40
2018-11-01T19:16:41.330Z,0.60
2018-11-01T19:19:10.020Z,0.63
2018-11-01T19:21:39.242Z,1.57
2018-11-01T19:24:07.981Z,1.23
2018-11-01T19:26:37.249Z,1.87
2018-11-01T19:29:05.640Z,1.80
2018-11-01T19:31:34.073Z,1.97
2018-11-01T19:34:02.825Z,1.47
2018-11-01T19:36:31.259Z,1.80
2018-11-01T19:39:00.231Z,1.13
2018-11-01T19:41:29.305Z,1.57
2018-11-01T19:43:58.573Z,1.37
2018-11-01T19:46:27.351Z,1.50
2018-11-01T19:48:56.364Z,0.70
2018-11-01T19:51:25.734Z,1.00
2018-11-01T19:53:54.278Z,0.50
2018-11-01T19:56:23.110Z,0.70
2018-11-01T19:58:52.905Z,1.27
2018-11-01T20:01:21.256Z,0.77
2018-11-01T20:03:49.500Z,8.37
2018-11-01T20:06:18.391Z,2.23
2018-11-01T20:08:47.038Z,1.80
2018-11-01T20:11:15.343Z,5.70
2018-11-01T20:13:43.691Z,2.30
2018-11-01T20:16:12.228Z,1.60
2018-11-01T20:18:40.877Z,0.90
2018-11-01T20:21:09.251Z,0.50
2018-11-01T20:23:37.674Z,0.90
2018-11-01T20:26:06.567Z,1.27
2018-11-01T20:28:35.951Z,1.40
2018-11-01T20:31:04.769Z,0.97
2018-11-01T20:33:33.312Z,0.57
2018-11-01T20:36:01.716Z,0.50
2018-11-01T20:38:30.044Z,1.03
2018-11-01T20:40:58.540Z,0.60
2018-11-01T20:43:26.912Z,0.30
2018-11-01T20:45:56.139Z,0.60
2018-11-01T20:48:24.744Z,0.50
2018-11-01T20:50:53.423Z,0.40
2018-11-01T20:53:22.412Z,0.40
2018-11-01T20:55:51.463Z,0.17
2018-11-01T20:58:20.364Z,0.50
2018-11-01T21:00:49.484Z,0.50
2018-11-01T21:03:18.385Z,0.53
2018-11-01T21:05:47.273Z,0.40
2018-11-01T21:08:17.473Z,0.67
2018-11-01T21:10:48.328Z,0.40
2018-11-01T21:13:16.990Z,0.60
2018-11-01T21:15:45.830Z,0.40
2018-11-01T21:18:14.620Z,0.50
2018-11-01T21:20:43.411Z,0.60
2018-11-01T21:23:12.026Z,0.77
2018-11-01T21:25:40.689Z,0.50
2018-11-01T21:28:09.583Z,0.43
2018-11-01T21:30:38.645Z,0.90
2018-11-01T21:33:07.048Z,0.73
2018-11-01T21:35:35.309Z,0.40
2018-11-01T21:38:03.632Z,0.33
2018-11-01T21:40:32.203Z,0.60
2018-11-01T21:43:00.731Z,0.30
2018-11-01T21:45:29.628Z,0.60
2018-11-01T21:47:58.119Z,0.30
2018-11-01T21:50:26.806Z,0.47
2018-11-01T21:52:55.366Z,0.50
2018-11-01T21:55:23.900Z,0.47
2018-11-01T21:57:52.182Z,0.47
2018-11-01T22:00:20.748Z,0.40
2018-11-01T22:02:49.269Z,0.50
2018-11-01T22:05:18.156Z,0.50
2018-11-01T22:07:46.684Z,0.80
2018-11-01T22:10:15.830Z,0.40
2018-11-01T22:12:44.487Z,0.63
2018-11-01T22:15:13.256Z,0.83
2018-11-01T22:17:42.554Z,0.60
2018-11-01T22:20:12.940Z,0.40
2018-11-01T22:22:41.704Z,0.60
2018-11-01T22:25:10.030Z,0.90
2018-11-01T22:27:38.616Z,0.80
2018-11-01T22:30:09.345Z,0.50
2018-11-01T22:32:37.726Z,0.47
2018-11-01T22:35:06.823Z,1.13
2018-11-01T22:37:35.059Z,0.33
2018-11-01T22:40:03.906Z,0.53
2018-11-01T22:42:32.747Z,0.40
2018-11-01T22:45:01.118Z,0.57
2018-11-01T22:47:29.396Z,0.40
2018-11-01T22:49:58.622Z,0.30
2018-11-01T22:52:27.751Z,0.87
2018-11-01T22:54:56.623Z,0.50
2018-11-01T22:57:25.672Z,0.70
2018-11-01T22:59:54.686Z,0.50
2018-11-01T23:02:24.162Z,0.77
2018-11-01T23:04:54.440Z,0.43
2018-11-01T23:07:24.082Z,0.30
2018-11-01T23:09:52.831Z,0.70
2018-11-01T23:12:21.479Z,0.77
2018-11-01T23:14:50.356Z,0.80
2018-11-01T23:17:19.362Z,0.50
2018-11-01T23:19:47.595Z,0.53
2018-11-01T23:22:16.407Z,0.40
2018-11-01T23:24:45.831Z,0.40
2018-11-01T23:27:14.186Z,0.67
2018-11-01T23:29:43.865Z,0.80
2018-11-01T23:32:12.391Z,0.40
2018-11-01T23:34:40.957Z,0.40
2018-11-01T23:37:14.790Z,0.40
2018-11-01T23:39:48.531Z,0.50
2018-11-01T23:42:22.195Z,0.30
2018-11-01T23:44:55.837Z,0.50
2018-11-01T23:47:29.847Z,0.40
2018-11-01T23:50:08.250Z,0.30
2018-11-01T23:52:36.803Z,0.33
2018-11-01T23:55:05.462Z,0.70
2018-11-01T23:57:34.306Z,0.40
